Nathaniel B. Palmer — WBP3210 — position and weather

sailwx.info

Track history (hours):
 
Tides Pressure Air temp Water temp Dewpoint Dewpoint depression Visibility Wind speed Wind direction Waves Ship positions

Oceanographic research ship Nathaniel B. Palmer (USA)

Contact: Ethan Norris, ethan.norris.contractor@usap.gov

Detailed information on ship capabilities available from University of Delaware's Ocean Information Center and ARCUS's ALIAS (Arctic Logistics Information and Support) project.

Owner: OFFSHORE SERVICE VESSELS, Cut Off, LA. More information available from US FCC via Universal Licensing System and Coast Guard Vessel Documentation Center.

Last reported at 2018-Jul-07 13:00 UTC. Time now 2018-Jul-22 06:53 UTC.
Position N 00°00' E 000°00'.
Warning: this ship's position is 14 days out of date.

Type: Other ship. MMSI: 366610000.

Wind from 360

Barometer 1021.5 mb
Air temperature 0.3 ° C
Water temperature -0.0 ° C

Date/timePositionNaut miles runAvg speedWind from/ knotsBaromVisibWave heightAir tempDewpointWater temp
2018-Jul-07 13:00N 00°00' E 000°00'0 0.0 360 1021.5 0.3 -0.0
2018-Jul-07 12:00N 00°00' E 000°00'0 0.0 1021.3 -0.2 -0.0
2018-Jul-07 11:00N 00°00' E 000°00'0 0.0 1021.1 -0.8 -0.0
2018-Jul-07 10:00N 00°00' E 000°00'0 0.0 1020.8 -0.7 -0.0
2018-Jul-07 09:00N 00°00' E 000°00'0 0.0 360 1020.5 -0.7 -0.0
2018-Jul-07 08:00N 00°00' E 000°00'0 0.0 360 1020.6 -1.0 -0.0
2018-Jul-07 07:00N 00°00' E 000°00'0 0.0 360 1020.4 -0.6 -0.0
2018-Jul-07 06:00N 00°00' E 000°00'0 0.0 1020.2 -0.5 -0.0
2018-Jul-07 05:00N 00°00' E 000°00'0 0.0 360 1020.1 0.4 -0.0
2018-Jul-07 04:00N 00°00' E 000°00'0 0.0 360 1019.9 1.2 -0.0
2018-Jul-07 03:00N 00°00' E 000°00'0 0.0 1019.9 1.7 -0.0
2018-Jul-07 02:00N 00°00' E 000°00'0 0.0 360 1019.9 1.8 -0.0
2018-Jul-07 01:00N 00°00' E 000°00'0 0.0 1020.1 1.7 -0.0
2018-Jul-07 00:00N 00°00' E 000°00'0 0.0 360 1020.0 1.8 -0.0
2018-Jul-06 23:00N 00°00' E 000°00'0 0.0 360 1019.6 2.0 -0.0
2018-Jul-06 22:00N 00°00' E 000°00'0 0.0 1019.2 2.5 -0.0
2018-Jul-06 21:00N 00°00' E 000°00'0 0.0 360 1019.3 2.7 -0.0
2018-Jul-06 20:00N 00°00' E 000°00'0 0.0 1019.2 2.7 -0.0
2018-Jul-06 19:00N 00°00' E 000°00'0 0.0 360 1019.1 2.6 -0.0
2018-Jul-06 18:00N 00°00' E 000°00'0 0.0 1019.4 2.4 -0.0
2018-Jul-06 17:00N 00°00' E 000°00'0 0.0 1019.7 2.9 -0.0
2018-Jul-06 16:00N 00°00' E 000°00'0 0.0 360 1019.9 3.3 -0.0
2018-Jul-06 15:00N 00°00' E 000°00'0 0.0 360 1019.8 3.8 -0.0
2018-Jul-06 14:00N 00°00' E 000°00'0 0.0 1019.8 3.8 -0.0
2018-Jul-06 13:00N 00°00' E 000°00'0 0.0 360 1019.7 3.3 -0.0
2018-Jul-06 12:00N 00°00' E 000°00'0 0.0 1019.6 3.0 -0.0
2018-Jul-06 11:00N 00°00' E 000°00'0 0.0 1019.6 3.3 -0.0
2018-Jul-06 10:00N 00°00' E 000°00'0 0.0 1019.8 3.0 -0.0
2018-Jul-06 09:00N 00°00' E 000°00'0 0.0 1019.8 2.7 -0.0
2018-Jul-06 08:00N 00°00' E 000°00'0 0.0 360 1020.2 3.0 -0.0
2018-Jul-06 07:00N 00°00' E 000°00'0 0.0 360 1020.5 3.5 -0.0
2018-Jul-06 06:00N 00°00' E 000°00'0 0.0 1020.7 3.6 -0.0
2018-Jul-06 05:00N 00°00' E 000°00'0 0.0 1020.8 3.3 -0.0
2018-Jul-06 04:00N 00°00' E 000°00'0 0.0 360 1020.6 3.2 -0.0
2018-Jul-06 03:00N 00°00' E 000°00'0 0.0 1020.5 3.2 -0.0
2018-Jul-06 02:00N 00°00' E 000°00'0 0.0 360 1020.5 3.2 -0.0
2018-Jul-06 01:00N 00°00' E 000°00'0 0.0 360 1020.7 3.1 -0.0
2018-Jul-06 00:00N 00°00' E 000°00'0 0.0 530.8 1.4 -0.0
2018-Jul-05 23:00N 00°00' E 000°00'0 0.0 1000.0 -0.0 -0.0
2018-Jul-05 22:00N 00°00' E 000°00'0 0.0 1000.0 -0.0 -0.0
2018-Jul-05 21:00N 00°00' E 000°00'0 0.0 1000.0 -0.0 -0.0
2018-Jul-05 20:00N 00°00' E 000°00'0 0.0 360 1000.0 -0.0 -0.0
2018-Jul-05 19:00N 00°00' E 000°00'0 0.0 1000.0 -0.0 -0.0
2018-Jul-05 18:00N 00°00' E 000°00'0 0.0 360 1000.0 -0.0 -0.0
2018-Jul-05 17:00N 00°00' E 000°00'0 0.0 360 1000.0 -0.0 -0.0
2018-Jul-05 16:00N 00°00' E 000°00'0 0.0 1000.0 -0.0 -0.0
2018-Jul-05 15:00N 00°00' E 000°00'0 0.0 1000.0 -0.0 -0.0
2018-Jul-05 14:00N 00°00' E 000°00'0 0.0 1000.0 -0.0 -0.0
2018-Jul-05 13:00N 00°00' E 000°00'0 0.0 1000.0 -0.0 -0.0
2018-Jul-05 12:00N 00°00' E 000°00'0 0.0 360 1000.0 -0.0 -0.0
2018-Jul-05 11:00N 00°00' E 000°00'0 0.0 1000.0 -0.0 -0.0
2018-Jul-05 10:00N 00°00' E 000°00'0 0.0 1000.0 -0.0 -0.0
2018-Jul-05 09:00N 00°00' E 000°00'0 0.0 360 1000.0 -0.0 -0.0
2018-Jul-05 08:00N 00°00' E 000°00'0 0.0 1000.0 -0.0 -0.0
2018-Jul-05 07:00N 00°00' E 000°00'0 0.0 1000.0 -0.0 -0.0
2018-Jul-05 06:00N 00°00' E 000°00'0 0.0 1000.0 -0.0 -0.0
2018-Jul-05 05:00N 00°00' E 000°00'0 0.0 1000.0 -0.0 -0.0
2018-Jul-05 04:00N 00°00' E 000°00'0 0.0 1000.0 -0.0 -0.0
2018-Jul-05 03:00N 00°00' E 000°00'0 0.0 360 1000.0 -0.0 -0.0
2018-Jul-05 02:00N 00°00' E 000°00'0 0.0 360 1000.0 -0.0 -0.0
2018-Jul-05 01:00N 00°00' E 000°00'0 0.0 1000.0 -0.0 -0.0
2018-Jul-05 00:00N 00°00' E 000°00'0 0.0 360 1000.0 -0.0 -0.0
2018-Jul-04 23:00N 00°00' E 000°00'0 0.0 360 1000.0 -0.0 -0.0
2018-Jul-04 22:00N 00°00' E 000°00'0 0.0 360 1000.0 -0.0 -0.0
2018-Jul-04 21:00N 00°00' E 000°00'0 0.0 360 1000.0 -0.0 -0.0
2018-Jul-04 20:00N 00°00' E 000°00'0 0.0 1000.0 -0.0 -0.0
2018-Jul-04 19:00N 00°00' E 000°00'0 0.0 360 1000.0 -0.0 -0.0
2018-Jul-04 18:00N 00°00' E 000°00'0 0.0 1000.0 -0.0 -0.0
2018-Jul-04 17:00N 00°00' E 000°00'0 0.0 360 1000.0 -0.0 -0.0
2018-Jul-04 16:00N 00°00' E 000°00'0 0.0 1000.0 -0.0 -0.0
2018-Jul-04 15:00N 00°00' E 000°00'0 0.0 360 1000.0 -0.0 -0.0
2018-Jul-04 14:00N 00°00' E 000°00'0 0.0 360 1000.0 -0.0 -0.0
2018-Jul-04 13:00N 00°00' E 000°00'0 0.0 1000.0 -0.0 -0.0
2018-Jul-04 12:00N 00°00' E 000°00'0 0.0 1000.0 -0.0 -0.0
2018-Jul-04 11:00N 00°00' E 000°00'0 0.0 1000.0 -0.0 -0.0
2018-Jul-04 10:00N 00°00' E 000°00'0 0.0 1000.0 -0.0 -0.0
2018-Jul-04 09:00N 00°00' E 000°00'0 0.0 1000.0 -0.0 -0.0
2018-Jul-04 08:00N 00°00' E 000°00'0 0.0 360 1000.0 -0.0 -0.0
2018-Jul-04 07:00N 00°00' E 000°00'0 0.0 360 1000.0 -0.0 -0.0
2018-Jul-04 06:00N 00°00' E 000°00'0 0.0 360 1000.0 -0.0 -0.0
2018-Jul-04 05:00N 00°00' E 000°00'0 0.0 360 1000.0 -0.0 -0.0
2018-Jul-04 04:00N 00°00' E 000°00'0 0.0 360 1000.0 -0.0 -0.0
2018-Jul-04 03:00N 00°00' E 000°00'0 0.0 1000.0 -0.0 -0.0
2018-Jul-04 02:00N 00°00' E 000°00'0 0.0 360 1000.0 -0.0 -0.0
2018-Jul-04 01:00N 00°00' E 000°00'   1000.0 -0.0 -0.0
Track history (hours):
 
Tides Pressure Air temp Water temp Dewpoint Dewpoint depression Visibility Wind speed Wind direction Waves Ship positions

Oceanographic research ship Nathaniel B. Palmer (USA)

Contact: Ethan Norris, ethan.norris.contractor@usap.gov

Detailed information on ship capabilities available from University of Delaware's Ocean Information Center and ARCUS's ALIAS (Arctic Logistics Information and Support) project.

Owner: OFFSHORE SERVICE VESSELS, Cut Off, LA. More information available from US FCC via Universal Licensing System and Coast Guard Vessel Documentation Center.

Last reported at 2018-Jul-07 13:00 UTC. Time now 2018-Jul-22 06:53 UTC.
Position N 00°00' E 000°00'.
Warning: this ship's position is 14 days out of date.

Type: Other ship. MMSI: 366610000.

Wind from 360

Barometer 1021.5 mb
Air temperature 0.3 ° C
Water temperature -0.0 ° C

Date/timePositionNaut miles runAvg speedWind from/ knotsBaromVisibWave heightAir tempDewpointWater temp
2018-Jul-07 13:00N 00°00' E 000°00'0 0.0 360 1021.5 0.3 -0.0
2018-Jul-07 12:00N 00°00' E 000°00'0 0.0 1021.3 -0.2 -0.0
2018-Jul-07 11:00N 00°00' E 000°00'0 0.0 1021.1 -0.8 -0.0
2018-Jul-07 10:00N 00°00' E 000°00'0 0.0 1020.8 -0.7 -0.0
2018-Jul-07 09:00N 00°00' E 000°00'0 0.0 360 1020.5 -0.7 -0.0
2018-Jul-07 08:00N 00°00' E 000°00'0 0.0 360 1020.6 -1.0 -0.0
2018-Jul-07 07:00N 00°00' E 000°00'0 0.0 360 1020.4 -0.6 -0.0
2018-Jul-07 06:00N 00°00' E 000°00'0 0.0 1020.2 -0.5 -0.0
2018-Jul-07 05:00N 00°00' E 000°00'0 0.0 360 1020.1 0.4 -0.0
2018-Jul-07 04:00N 00°00' E 000°00'0 0.0 360 1019.9 1.2 -0.0
2018-Jul-07 03:00N 00°00' E 000°00'0 0.0 1019.9 1.7 -0.0
2018-Jul-07 02:00N 00°00' E 000°00'0 0.0 360 1019.9 1.8 -0.0
2018-Jul-07 01:00N 00°00' E 000°00'0 0.0 1020.1 1.7 -0.0
2018-Jul-07 00:00N 00°00' E 000°00'0 0.0 360 1020.0 1.8 -0.0
2018-Jul-06 23:00N 00°00' E 000°00'0 0.0 360 1019.6 2.0 -0.0
2018-Jul-06 22:00N 00°00' E 000°00'0 0.0 1019.2 2.5 -0.0
2018-Jul-06 21:00N 00°00' E 000°00'0 0.0 360 1019.3 2.7 -0.0
2018-Jul-06 20:00N 00°00' E 000°00'0 0.0 1019.2 2.7 -0.0
2018-Jul-06 19:00N 00°00' E 000°00'0 0.0 360 1019.1 2.6 -0.0
2018-Jul-06 18:00N 00°00' E 000°00'0 0.0 1019.4 2.4 -0.0
2018-Jul-06 17:00N 00°00' E 000°00'0 0.0 1019.7 2.9 -0.0
2018-Jul-06 16:00N 00°00' E 000°00'0 0.0 360 1019.9 3.3 -0.0
2018-Jul-06 15:00N 00°00' E 000°00'0 0.0 360 1019.8 3.8 -0.0
2018-Jul-06 14:00N 00°00' E 000°00'0 0.0 1019.8 3.8 -0.0
2018-Jul-06 13:00N 00°00' E 000°00'0 0.0 360 1019.7 3.3 -0.0
2018-Jul-06 12:00N 00°00' E 000°00'0 0.0 1019.6 3.0 -0.0
2018-Jul-06 11:00N 00°00' E 000°00'0 0.0 1019.6 3.3 -0.0
2018-Jul-06 10:00N 00°00' E 000°00'0 0.0 1019.8 3.0 -0.0
2018-Jul-06 09:00N 00°00' E 000°00'0 0.0 1019.8 2.7 -0.0
2018-Jul-06 08:00N 00°00' E 000°00'0 0.0 360 1020.2 3.0 -0.0
2018-Jul-06 07:00N 00°00' E 000°00'0 0.0 360 1020.5 3.5 -0.0
2018-Jul-06 06:00N 00°00' E 000°00'0 0.0 1020.7 3.6 -0.0
2018-Jul-06 05:00N 00°00' E 000°00'0 0.0 1020.8 3.3 -0.0
2018-Jul-06 04:00N 00°00' E 000°00'0 0.0 360 1020.6 3.2 -0.0
2018-Jul-06 03:00N 00°00' E 000°00'0 0.0 1020.5 3.2 -0.0
2018-Jul-06 02:00N 00°00' E 000°00'0 0.0 360 1020.5 3.2 -0.0
2018-Jul-06 01:00N 00°00' E 000°00'0 0.0 360 1020.7 3.1 -0.0
2018-Jul-06 00:00N 00°00' E 000°00'0 0.0 530.8 1.4 -0.0
2018-Jul-05 23:00N 00°00' E 000°00'0 0.0 1000.0 -0.0 -0.0
2018-Jul-05 22:00N 00°00' E 000°00'0 0.0 1000.0 -0.0 -0.0
2018-Jul-05 21:00N 00°00' E 000°00'0 0.0 1000.0 -0.0 -0.0
2018-Jul-05 20:00N 00°00' E 000°00'0 0.0 360 1000.0 -0.0 -0.0
2018-Jul-05 19:00N 00°00' E 000°00'0 0.0 1000.0 -0.0 -0.0
2018-Jul-05 18:00N 00°00' E 000°00'0 0.0 360 1000.0 -0.0 -0.0
2018-Jul-05 17:00N 00°00' E 000°00'0 0.0 360 1000.0 -0.0 -0.0
2018-Jul-05 16:00N 00°00' E 000°00'0 0.0 1000.0 -0.0 -0.0
2018-Jul-05 15:00N 00°00' E 000°00'0 0.0 1000.0 -0.0 -0.0
2018-Jul-05 14:00N 00°00' E 000°00'0 0.0 1000.0 -0.0 -0.0
2018-Jul-05 13:00N 00°00' E 000°00'0 0.0 1000.0 -0.0 -0.0
2018-Jul-05 12:00N 00°00' E 000°00'0 0.0 360 1000.0 -0.0 -0.0
2018-Jul-05 11:00N 00°00' E 000°00'0 0.0 1000.0 -0.0 -0.0
2018-Jul-05 10:00N 00°00' E 000°00'0 0.0 1000.0 -0.0 -0.0
2018-Jul-05 09:00N 00°00' E 000°00'0 0.0 360 1000.0 -0.0 -0.0
2018-Jul-05 08:00N 00°00' E 000°00'0 0.0 1000.0 -0.0 -0.0
2018-Jul-05 07:00N 00°00' E 000°00'0 0.0 1000.0 -0.0 -0.0
2018-Jul-05 06:00N 00°00' E 000°00'0 0.0 1000.0 -0.0 -0.0
2018-Jul-05 05:00N 00°00' E 000°00'0 0.0 1000.0 -0.0 -0.0
2018-Jul-05 04:00N 00°00' E 000°00'0 0.0 1000.0 -0.0 -0.0
2018-Jul-05 03:00N 00°00' E 000°00'0 0.0 360 1000.0 -0.0 -0.0
2018-Jul-05 02:00N 00°00' E 000°00'0 0.0 360 1000.0 -0.0 -0.0
2018-Jul-05 01:00N 00°00' E 000°00'0 0.0 1000.0 -0.0 -0.0
2018-Jul-05 00:00N 00°00' E 000°00'0 0.0 360 1000.0 -0.0 -0.0
2018-Jul-04 23:00N 00°00' E 000°00'0 0.0 360 1000.0 -0.0 -0.0
2018-Jul-04 22:00N 00°00' E 000°00'0 0.0 360 1000.0 -0.0 -0.0
2018-Jul-04 21:00N 00°00' E 000°00'0 0.0 360 1000.0 -0.0 -0.0
2018-Jul-04 20:00N 00°00' E 000°00'0 0.0 1000.0 -0.0 -0.0
2018-Jul-04 19:00N 00°00' E 000°00'0 0.0 360 1000.0 -0.0 -0.0
2018-Jul-04 18:00N 00°00' E 000°00'0 0.0 1000.0 -0.0 -0.0
2018-Jul-04 17:00N 00°00' E 000°00'0 0.0 360 1000.0 -0.0 -0.0
2018-Jul-04 16:00N 00°00' E 000°00'0 0.0 1000.0 -0.0 -0.0
2018-Jul-04 15:00N 00°00' E 000°00'0 0.0 360 1000.0 -0.0 -0.0
2018-Jul-04 14:00N 00°00' E 000°00'0 0.0 360 1000.0 -0.0 -0.0
2018-Jul-04 13:00N 00°00' E 000°00'0 0.0 1000.0 -0.0 -0.0
2018-Jul-04 12:00N 00°00' E 000°00'0 0.0 1000.0 -0.0 -0.0
2018-Jul-04 11:00N 00°00' E 000°00'0 0.0 1000.0 -0.0 -0.0
2018-Jul-04 10:00N 00°00' E 000°00'0 0.0 1000.0 -0.0 -0.0
2018-Jul-04 09:00N 00°00' E 000°00'0 0.0 1000.0 -0.0 -0.0
2018-Jul-04 08:00N 00°00' E 000°00'0 0.0 360 1000.0 -0.0 -0.0
2018-Jul-04 07:00N 00°00' E 000°00'0 0.0 360 1000.0 -0.0 -0.0
2018-Jul-04 06:00N 00°00' E 000°00'0 0.0 360 1000.0 -0.0 -0.0
2018-Jul-04 05:00N 00°00' E 000°00'0 0.0 360 1000.0 -0.0 -0.0
2018-Jul-04 04:00N 00°00' E 000°00'0 0.0 360 1000.0 -0.0 -0.0
2018-Jul-04 03:00N 00°00' E 000°00'0 0.0 1000.0 -0.0 -0.0
2018-Jul-04 02:00N 00°00' E 000°00'0 0.0 360 1000.0 -0.0 -0.0
2018-Jul-04 01:00N 00°00' E 000°00'   1000.0 -0.0 -0.0

Dump ship's entire track history